Time;durP1;ratioP1;P1;durP2;ratioP2;P2;SDS_P1;SDS_P2;PMS_P1;PMS_P2;Temp;Humidity;BMP_temperature;BMP_pressure;BME280_temperature;BME280_humidity;BME280_pressure;Samples;Min_cycle;Max_cycle;Signal;HPM_P1;HPM_P2
2023/07/27 00:00:49;;;;;;;3.90;2.00;;;;;;;18.21;38.22;100652.22;5095512;28;20060;-76
2023/07/27 00:03:17;;;;;;;3.88;2.08;;;;;;;18.21;38.21;100654.13;5089418;28;20185;-77
2023/07/27 00:05:46;;;;;;;3.67;2.10;;;;;;;18.21;38.43;100651.38;5093537;28;20075;-78
2023/07/27 00:08:15;;;;;;;4.03;2.40;;;;;;;18.20;38.56;100653.28;5092702;28;20032;-77
2023/07/27 00:10:44;;;;;;;3.92;2.13;;;;;;;18.19;38.62;100651.56;5091816;28;20039;-77
2023/07/27 00:13:12;;;;;;;3.55;2.05;;;;;;;18.17;38.35;100647.25;5072364;28;20036;-77
2023/07/27 00:15:40;;;;;;;6.72;2.33;;;;;;;18.17;38.00;100636.16;5071607;28;20043;-79
2023/07/27 00:18:08;;;;;;;3.53;2.13;;;;;;;18.15;38.28;100645.53;5072911;28;20048;-77
2023/07/27 00:20:36;;;;;;;4.40;2.47;;;;;;;18.15;38.14;100642.75;5097280;28;20078;-77
2023/07/27 00:23:04;;;;;;;3.17;1.90;;;;;;;18.15;38.22;100639.97;5097086;28;20043;-77
2023/07/27 00:25:32;;;;;;;3.70;1.98;;;;;;;18.15;38.33;100644.66;5091720;28;20467;-77
2023/07/27 00:28:01;;;;;;;3.55;2.20;;;;;;;18.17;38.29;100639.78;5092146;28;20040;-76
2023/07/27 00:30:30;;;;;;;4.18;2.30;;;;;;;18.14;38.03;100632.72;5076779;28;20123;-76
2023/07/27 00:32:59;;;;;;;3.97;2.13;;;;;;;18.15;38.51;100628.03;5074795;28;20043;-77
2023/07/27 00:35:27;;;;;;;3.45;2.17;;;;;;;18.13;38.10;100631.03;5068242;28;20112;-77
2023/07/27 00:37:55;;;;;;;3.63;2.28;;;;;;;18.12;38.23;100623.75;5077175;28;20047;-77
2023/07/27 00:40:22;;;;;;;3.65;2.10;;;;;;;18.12;37.96;100621.00;5071568;28;20108;-77
2023/07/27 00:42:51;;;;;;;3.22;1.92;;;;;;;18.12;38.04;100618.22;5071394;28;20048;-77
2023/07/27 00:45:20;;;;;;;3.67;2.03;;;;;;;18.13;38.41;100605.22;5077256;28;20043;-77
2023/07/27 00:47:48;;;;;;;4.45;2.20;;;;;;;18.10;38.26;100605.59;5090256;28;20040;-78
2023/07/27 00:50:42;;;;;;;4.47;2.10;;;;;;;18.07;38.51;100609.59;5072251;28;20067;-78
2023/07/27 00:53:10;;;;;;;4.65;2.20;;;;;;;18.06;37.85;100602.34;5078950;28;20062;-78
2023/07/27 00:55:38;;;;;;;4.32;2.10;;;;;;;18.07;38.26;100603.19;5070650;28;20071;-78
2023/07/27 00:58:06;;;;;;;4.70;2.28;;;;;;;18.05;38.12;100597.88;5079897;28;20035;-77
2023/07/27 01:00:36;;;;;;;3.22;2.00;;;;;;;18.07;38.07;100597.66;5094182;28;20036;-78
2023/07/27 01:03:05;;;;;;;3.38;2.03;;;;;;;18.04;38.19;100596.16;5070723;28;20040;-78
2023/07/27 01:05:33;;;;;;;3.63;2.03;;;;;;;18.03;38.13;100586.13;5071976;28;20402;-78
2023/07/27 01:08:01;;;;;;;4.15;1.85;;;;;;;18.02;38.40;100584.41;5075794;28;20037;-78
2023/07/27 01:10:46;;;;;;;4.32;2.15;;;;;;;18.05;38.13;100581.25;5091904;28;20140;-78
2023/07/27 01:13:23;;;;;;;4.43;2.08;;;;;;;18.01;38.34;100574.38;5075084;28;20052;-78
2023/07/27 01:15:59;;;;;;;3.50;1.98;;;;;;;18.02;38.75;100576.09;5073601;28;20060;-78
2023/07/27 01:18:33;;;;;;;4.03;2.00;;;;;;;18.02;38.47;100575.22;5071284;28;20051;-78
2023/07/27 01:21:14;;;;;;;3.63;2.00;;;;;;;18.03;38.17;100579.72;5075538;28;20147;-78
2023/07/27 01:24:18;;;;;;;4.50;2.00;;;;;;;17.98;37.98;100576.66;5077731;28;20079;-79
2023/07/27 01:27:19;;;;;;;3.88;1.95;;;;;;;17.96;38.54;100568.56;5070304;28;20122;-78
2023/07/27 01:30:08;;;;;;;3.53;1.98;;;;;;;17.98;38.22;100573.88;5094519;28;20051;-78
2023/07/27 01:32:40;;;;;;;3.30;2.03;;;;;;;17.98;38.23;100573.88;5070221;28;20043;-77
2023/07/27 01:35:11;;;;;;;3.38;1.88;;;;;;;17.97;37.92;100564.75;5091497;28;20139;-78
2023/07/27 01:37:42;;;;;;;4.03;1.98;;;;;;;17.98;37.87;100563.66;5066672;28;20040;-78
2023/07/27 01:40:13;;;;;;;3.38;2.10;;;;;;;17.98;38.32;100568.34;5091809;28;20489;-78
2023/07/27 01:42:42;;;;;;;3.38;1.85;;;;;;;17.96;37.98;100571.31;5086899;28;20033;-78
2023/07/27 01:45:13;;;;;;;3.80;1.83;;;;;;;17.97;38.38;100569.41;5072224;28;20064;-78
2023/07/27 01:47:46;;;;;;;2.85;1.63;;;;;;;17.98;38.28;100565.56;5089196;28;20108;-78
2023/07/27 01:50:15;;;;;;;;;;;;;;;17.67;38.49;100568.47;5085699;28;20046;-78
2023/07/27 01:52:45;;;;;;;3.10;2.03;;;;;;;17.93;38.13;100556.97;5076698;28;19927;-78
2023/07/27 01:55:15;;;;;;;4.13;1.77;;;;;;;17.95;38.13;100552.13;5089151;28;20131;-78
2023/07/27 01:57:45;;;;;;;4.90;2.00;;;;;;;17.96;38.20;100553.84;5088975;28;20531;-78
2023/07/27 02:00:14;;;;;;;3.55;1.88;;;;;;;17.95;38.67;100552.97;5087087;28;20101;-78
2023/07/27 02:02:47;;;;;;;2.70;1.83;;;;;;;17.97;38.87;100553.66;5070503;28;20101;-78
2023/07/27 02:05:15;;;;;;;4.40;1.92;;;;;;;17.95;38.32;100547.44;5067827;28;20389;-79
2023/07/27 02:07:44;;;;;;;3.08;1.80;;;;;;;17.95;38.85;100549.34;5071979;28;20066;-78
2023/07/27 02:10:16;;;;;;;3.13;1.95;;;;;;;17.97;39.05;100550.91;5069979;28;20048;-78
2023/07/27 02:12:50;;;;;;;3.60;2.25;;;;;;;17.95;38.84;100546.59;5094199;28;20044;-77
2023/07/27 02:15:24;;;;;;;3.38;1.75;;;;;;;17.97;38.62;100547.25;5067916;28;20131;-77
2023/07/27 02:17:59;;;;;;;3.85;2.33;;;;;;;17.97;39.20;100550.91;5089628;28;20076;-77
2023/07/27 02:20:34;;;;;;;3.50;1.98;;;;;;;17.97;38.92;100542.59;5091504;28;20043;-77
2023/07/27 02:23:04;;;;;;;3.42;2.03;;;;;;;17.95;39.27;100543.81;5074015;28;20036;-77
2023/07/27 02:25:34;;;;;;;3.83;1.95;;;;;;;17.95;39.30;100541.06;5068584;28;20096;-76
2023/07/27 02:28:02;;;;;;;3.75;2.20;;;;;;;17.94;39.41;100547.63;5070462;28;20040;-76
2023/07/27 02:30:30;;;;;;;3.17;2.08;;;;;;;17.93;39.72;100543.13;5086971;28;20062;-76
2023/07/27 02:32:59;;;;;;;4.53;2.30;;;;;;;17.94;39.66;100539.31;5070419;28;20383;-75
2023/07/27 02:35:27;;;;;;;4.10;2.10;;;;;;;17.93;39.67;100545.91;5071807;28;20053;-76
2023/07/27 02:37:56;;;;;;;3.97;2.10;;;;;;;17.91;39.87;100548.84;5070668;28;20063;-76
2023/07/27 02:40:26;;;;;;;4.72;2.60;;;;;;;17.91;39.87;100542.47;5074561;28;20044;-76
2023/07/27 02:42:55;;;;;;;3.95;2.50;;;;;;;17.90;39.91;100541.59;5067553;28;20119;-76
2023/07/27 02:45:24;;;;;;;4.13;2.40;;;;;;;17.89;39.77;100539.06;5081044;28;20044;-75
2023/07/27 02:47:52;;;;;;;4.22;2.50;;;;;;;17.89;40.14;100533.50;5071451;28;20075;-76
2023/07/27 02:50:23;;;;;;;4.53;2.22;;;;;;;17.90;40.37;100538.84;5075693;28;20514;-76
2023/07/27 02:53:01;;;;;;;4.30;2.75;;;;;;;17.87;40.30;100536.47;5080444;28;20093;-76
2023/07/27 02:55:29;;;;;;;5.20;2.70;;;;;;;17.86;40.70;100531.97;5071879;28;20044;-76
2023/07/27 02:58:00;;;;;;;4.45;2.60;;;;;;;17.85;41.16;100537.69;5073210;28;20048;-76
2023/07/27 03:00:32;;;;;;;4.97;3.10;;;;;;;17.80;41.06;100529.09;5080042;28;20043;-76
2023/07/27 03:03:01;;;;;;;5.10;2.70;;;;;;;17.80;41.20;100535.50;5073540;28;20585;-77
2023/07/27 03:05:30;;;;;;;5.47;3.00;;;;;;;17.80;41.57;100526.34;5076589;28;20037;-77
2023/07/27 03:07:58;;;;;;;3.80;2.55;;;;;;;17.75;41.64;100527.75;5073353;28;20084;-77
2023/07/27 03:10:35;;;;;;;4.47;2.80;;;;;;;17.73;42.08;100524.28;5073332;28;20528;-77
2023/07/27 03:13:03;;;;;;;4.40;2.78;;;;;;;17.69;41.58;100522.09;5074204;28;20035;-77
2023/07/27 03:15:32;;;;;;;4.45;2.75;;;;;;;17.67;42.18;100518.63;5068006;28;20059;-77
2023/07/27 03:18:00;;;;;;;4.90;2.90;;;;;;;17.65;42.34;100510.53;5095043;28;20056;-76
2023/07/27 03:20:30;;;;;;;4.63;2.75;;;;;;;17.65;42.19;100505.00;5076476;28;20124;-77
2023/07/27 03:22:59;;;;;;;4.03;2.40;;;;;;;17.61;42.42;100500.91;5076273;28;20666;-76
2023/07/27 03:25:31;;;;;;;4.95;2.70;;;;;;;17.58;42.49;100495.72;5073969;28;20122;-77
2023/07/27 03:27:59;;;;;;;4.65;2.70;;;;;;;17.55;42.99;100490.59;5093185;28;20035;-77
2023/07/27 03:30:27;;;;;;;4.03;2.20;;;;;;;17.55;42.81;100486.97;5074565;28;20096;-77
2023/07/27 03:32:54;;;;;;;4.47;2.40;;;;;;;17.52;42.87;100481.78;5082433;28;20108;-77
2023/07/27 03:35:23;;;;;;;4.13;2.58;;;;;;;17.49;43.28;100471.97;5076444;28;20516;-77
2023/07/27 03:37:52;;;;;;;4.38;2.17;;;;;;;17.49;43.07;100471.09;5080908;28;20047;-76
2023/07/27 03:40:21;;;;;;;3.78;2.30;;;;;;;17.45;43.12;100472.53;5076789;28;20040;-76
2023/07/27 03:42:49;;;;;;;3.60;2.08;;;;;;;17.43;43.62;100463.56;5092270;28;20051;-76
2023/07/27 03:45:17;;;;;;;5.05;2.35;;;;;;;17.40;43.40;100467.59;5069968;28;20066;-77
2023/07/27 03:47:46;;;;;;;4.28;2.20;;;;;;;17.37;43.79;100466.03;5074012;28;20052;-77
2023/07/27 03:50:14;;;;;;;5.20;2.42;;;;;;;17.35;43.51;100464.50;5076073;28;20032;-77
2023/07/27 03:52:44;;;;;;;3.75;2.38;;;;;;;17.32;44.16;100467.63;5075360;28;20052;-76
2023/07/27 03:55:18;;;;;;;4.80;2.40;;;;;;;17.32;43.92;100473.16;5073307;28;20133;-76
2023/07/27 03:57:48;;;;;;;;;;;;;;;17.00;44.90;100466.03;5080987;28;20051;-76
2023/07/27 04:00:16;;;;;;;4.45;2.00;;;;;;;17.21;43.68;100463.44;5078014;28;20258;-77
2023/07/27 04:02:46;;;;;;;4.47;2.38;;;;;;;17.22;44.30;100442.19;5071599;28;20052;-76
2023/07/27 04:05:15;;;;;;;4.32;2.30;;;;;;;17.19;44.18;100437.88;5092023;28;20126;-76
2023/07/27 04:07:43;;;;;;;4.28;2.47;;;;;;;17.17;44.43;100430.78;5075705;28;20052;-76
2023/07/27 04:10:11;;;;;;;4.25;2.65;;;;;;;17.12;44.37;100436.91;5077423;28;20039;-76
2023/07/27 04:12:40;;;;;;;3.97;2.50;;;;;;;17.10;44.27;100436.22;5087891;28;20043;-77
2023/07/27 04:15:09;;;;;;;5.70;2.80;;;;;;;17.07;45.06;100436.63;5075089;28;20449;-77
2023/07/27 04:17:37;;;;;;;3.63;2.20;;;;;;;17.00;44.78;100436.47;5093029;28;20075;-77
2023/07/27 04:20:08;;;;;;;5.25;2.67;;;;;;;16.98;44.86;100437.75;5098680;28;20348;-76
2023/07/27 04:22:36;;;;;;;5.10;3.08;;;;;;;16.94;45.46;100437.19;5096466;28;20052;-76
2023/07/27 04:25:04;;;;;;;4.07;2.65;;;;;;;16.93;45.61;100434.63;5095501;28;20154;-76
2023/07/27 04:27:32;;;;;;;4.57;3.08;;;;;;;16.89;45.59;100436.91;5070850;28;20071;-76
2023/07/27 04:30:02;;;;;;;4.90;2.40;;;;;;;16.88;45.84;100432.44;5071485;28;20481;-76
2023/07/27 04:32:30;;;;;;;4.45;2.58;;;;;;;16.84;45.39;100431.06;5093906;28;20086;-76
2023/07/27 04:34:58;;;;;;;3.72;2.30;;;;;;;16.81;46.14;100419.53;5081672;28;20059;-76
2023/07/27 04:37:26;;;;;;;4.93;2.70;;;;;;;16.78;45.81;100414.38;5072014;28;20050;-76
2023/07/27 04:39:54;;;;;;;4.68;2.70;;;;;;;16.73;46.49;100408.56;5090227;28;20129;-76
2023/07/27 04:42:22;;;;;;;4.35;2.30;;;;;;;16.70;46.43;100400.63;5072228;28;20048;-77
2023/07/27 04:44:50;;;;;;;3.90;2.67;;;;;;;16.67;46.01;100395.44;5073266;28;20515;-77
2023/07/27 04:47:19;;;;;;;4.22;2.60;;;;;;;16.63;46.66;100390.31;5056818;28;20067;-76
2023/07/27 04:49:47;;;;;;;4.68;2.75;;;;;;;16.58;46.01;100384.47;5049314;28;20066;-76
2023/07/27 04:52:15;;;;;;;4.20;2.40;;;;;;;16.52;46.99;100370.53;5060710;28;20097;-76
2023/07/27 04:54:43;;;;;;;4.25;2.50;;;;;;;16.47;46.99;100362.81;5058733;28;20051;-76
2023/07/27 04:57:37;;;;;;;4.20;2.35;;;;;;;16.38;48.00;100358.41;5062021;28;20071;-77
2023/07/27 05:00:06;;;;;;;3.92;2.42;;;;;;;16.34;46.70;100348.75;5081312;28;20978;-77
2023/07/27 05:02:36;;;;;;;3.83;2.30;;;;;;;16.31;47.29;100351.91;5101431;28;20040;-77
2023/07/27 05:05:04;;;;;;;4.90;2.60;;;;;;;16.24;47.03;100337.13;5086759;28;20044;-76
2023/07/27 05:07:32;;;;;;;4.72;2.58;;;;;;;16.19;47.53;100334.91;5068462;28;20206;-76
2023/07/27 05:10:00;;;;;;;4.28;2.70;;;;;;;16.15;47.91;100327.16;5095581;28;20048;-76
2023/07/27 05:12:28;;;;;;;4.35;2.40;;;;;;;16.11;47.70;100323.00;5087666;28;20411;-76
2023/07/27 05:14:56;;;;;;;5.15;2.83;;;;;;;16.06;47.50;100318.06;5092652;28;20062;-76
2023/07/27 05:17:24;;;;;;;4.07;2.55;;;;;;;16.02;48.15;100307.56;5095437;28;20462;-76
2023/07/27 05:19:54;;;;;;;3.83;2.53;;;;;;;16.00;48.19;100316.00;5075872;28;20134;-77
2023/07/27 05:25:52;;;;;;;4.60;2.60;;;;;;;15.84;48.43;100307.84;5077189;28;20040;-77
2023/07/27 05:28:20;;;;;;;4.97;2.60;;;;;;;15.81;48.44;100295.28;5079322;28;20101;-76
2023/07/27 05:30:49;;;;;;;4.65;2.60;;;;;;;15.79;48.49;100304.78;5085962;28;20040;-76
2023/07/27 05:33:17;;;;;;;4.65;2.35;;;;;;;15.74;48.42;100293.44;5090489;28;20055;-76
2023/07/27 05:35:49;;;;;;;4.43;2.70;;;;;;;15.72;49.21;100295.50;5085486;28;20036;-77
2023/07/27 05:38:18;;;;;;;4.80;2.70;;;;;;;15.64;49.04;100296.41;5095124;28;20045;-76
2023/07/27 05:40:46;;;;;;;4.35;2.47;;;;;;;15.61;49.16;100285.72;5084246;28;20071;-76
2023/07/27 05:43:14;;;;;;;5.63;2.90;;;;;;;15.59;49.20;100289.75;5095067;28;20433;-77
2023/07/27 05:45:42;;;;;;;4.47;2.60;;;;;;;15.55;48.71;100294.75;5087931;28;20060;-77
2023/07/27 05:48:10;;;;;;;5.20;2.80;;;;;;;15.50;49.45;100273.25;5086122;28;20040;-77
2023/07/27 05:50:38;;;;;;;5.03;2.85;;;;;;;15.47;49.28;100269.97;5083544;28;20090;-78
2023/07/27 05:53:07;;;;;;;5.20;2.80;;;;;;;15.45;49.54;100278.41;5088604;28;20487;-77
2023/07/27 05:55:35;;;;;;;6.18;2.88;;;;;;;15.40;49.46;100282.75;5083776;28;21636;-77
2023/07/27 05:58:03;;;;;;;5.03;3.20;;;;;;;15.38;49.50;100287.59;5061602;28;20135;-77
2023/07/27 06:01:16;;;;;;;4.65;2.78;;;;;;;15.33;49.59;100276.22;5070811;28;20047;-77
2023/07/27 06:03:44;;;;;;;5.28;2.65;;;;;;;15.32;49.81;100272.59;5083046;28;20095;-78
2023/07/27 06:06:32;;;;;;;5.60;2.60;;;;;;;15.30;49.92;100271.03;5089596;28;20051;-77
2023/07/27 06:09:02;;;;;;;4.50;2.80;;;;;;;15.30;50.50;100258.13;5088032;28;20200;-77
2023/07/27 06:11:31;;;;;;;5.00;2.80;;;;;;;15.28;50.51;100262.09;5089029;28;20652;-79
2023/07/27 06:13:59;;;;;;;4.10;2.80;;;;;;;15.27;50.67;100265.88;5065622;28;20063;-78
2023/07/27 06:16:27;;;;;;;4.82;2.60;;;;;;;15.25;50.76;100265.22;5079268;28;20478;-77
2023/07/27 06:18:55;;;;;;;3.95;2.65;;;;;;;15.25;50.29;100263.34;5084569;28;20491;-78
2023/07/27 06:21:23;;;;;;;4.80;2.58;;;;;;;15.24;50.72;100258.84;5084737;28;20055;-78
2023/07/27 06:23:51;;;;;;;4.20;2.50;;;;;;;15.24;50.60;100260.75;5083823;28;20551;-77
2023/07/27 06:26:20;;;;;;;3.88;2.35;;;;;;;15.25;51.33;100246.78;5084661;28;20040;-77
2023/07/27 06:28:49;;;;;;;3.67;2.30;;;;;;;15.24;50.98;100249.72;5084099;28;20041;-77
2023/07/27 06:31:17;;;;;;;3.70;2.30;;;;;;;15.24;50.84;100244.22;5092405;28;20043;-78
2023/07/27 06:33:45;;;;;;;3.58;2.40;;;;;;;15.23;50.99;100234.22;5075428;28;20370;-78
2023/07/27 06:36:15;;;;;;;4.18;2.60;;;;;;;15.20;51.21;100229.91;5072271;28;20047;-78
2023/07/27 06:38:42;;;;;;;4.03;2.33;;;;;;;15.21;51.51;100236.28;5079350;28;20056;-78
2023/07/27 06:41:11;;;;;;;3.58;2.22;;;;;;;15.22;51.65;100247.13;5095188;28;20044;-78
2023/07/27 06:43:40;;;;;;;4.85;2.42;;;;;;;15.23;51.90;100248.84;5072506;28;20048;-79
2023/07/27 06:46:08;;;;;;;4.03;2.13;;;;;;;15.23;51.27;100239.72;5086311;28;20384;-79
2023/07/27 06:48:36;;;;;;;3.67;2.13;;;;;;;15.24;51.42;100249.72;5075961;28;20422;-78
2023/07/27 06:51:04;;;;;;;3.42;2.17;;;;;;;15.24;51.83;100238.69;5073493;28;20244;-78
2023/07/27 06:53:32;;;;;;;3.15;2.15;;;;;;;15.24;51.59;100241.44;5072108;28;20406;-78
2023/07/27 06:56:00;;;;;;;3.90;1.92;;;;;;;15.25;51.56;100240.41;5086034;28;20102;-79
2023/07/27 06:58:28;;;;;;;4.18;2.17;;;;;;;15.25;51.88;100229.38;5092737;28;20044;-78
2023/07/27 07:00:57;;;;;;;3.92;2.03;;;;;;;15.27;51.83;100230.03;5075178;28;20143;-78
2023/07/27 07:03:25;;;;;;;4.47;2.47;;;;;;;15.25;52.19;100227.50;5087310;28;20462;-78
2023/07/27 07:05:54;;;;;;;3.67;2.22;;;;;;;15.26;52.32;100226.44;5085957;28;20062;-78
2023/07/27 07:08:22;;;;;;;3.72;2.30;;;;;;;15.26;52.62;100228.34;5091049;28;20067;-77
2023/07/27 07:10:50;;;;;;;3.63;2.10;;;;;;;15.26;52.11;100223.66;5090715;28;20104;-77
2023/07/27 07:13:18;;;;;;;4.22;2.30;;;;;;;15.27;52.52;100216.25;5096904;28;20394;-77
2023/07/27 07:15:46;;;;;;;3.67;2.38;;;;;;;15.28;52.41;100221.59;5077178;28;20360;-77
2023/07/27 07:18:16;;;;;;;4.13;2.30;;;;;;;15.29;52.69;100217.81;5094098;28;20078;-77
2023/07/27 07:20:45;;;;;;;3.63;2.13;;;;;;;15.27;52.84;100217.13;5092849;28;20036;-78
2023/07/27 07:23:15;;;;;;;3.40;2.33;;;;;;;15.27;52.46;100211.59;5071746;28;20117;-77
2023/07/27 07:25:43;;;;;;;3.28;2.03;;;;;;;15.29;52.73;100212.28;5083720;28;20060;-76
2023/07/27 07:28:11;;;;;;;2.90;1.98;;;;;;;15.30;52.54;100210.41;5085605;28;20556;-77
2023/07/27 07:30:41;;;;;;;3.55;2.25;;;;;;;15.30;53.28;100204.88;5091294;28;20418;-78
2023/07/27 07:33:10;;;;;;;3.47;2.33;;;;;;;15.31;53.13;100206.59;5072226;28;20040;-80
2023/07/27 07:35:39;;;;;;;3.53;2.10;;;;;;;15.33;53.49;100204.53;5089966;28;20093;-79
2023/07/27 07:38:10;;;;;;;3.90;2.50;;;;;;;15.33;53.87;100194.38;5087505;28;20050;-80
2023/07/27 07:40:38;;;;;;;3.33;2.00;;;;;;;15.32;53.38;100192.66;5092050;28;20036;-80
2023/07/27 07:43:07;;;;;;;3.13;2.10;;;;;;;15.34;53.31;100195.25;5089228;28;20040;-79
2023/07/27 07:45:35;;;;;;;3.95;1.95;;;;;;;15.34;53.82;100200.78;5090059;28;20115;-78
2023/07/27 07:48:03;;;;;;;3.30;1.85;;;;;;;15.35;53.92;100189.53;5092182;28;20040;-79
2023/07/27 07:50:33;;;;;;;3.75;1.85;;;;;;;15.36;54.01;100191.25;5086231;28;20047;-78
2023/07/27 07:53:02;;;;;;;3.17;1.70;;;;;;;15.39;53.88;100190.91;5093000;28;20036;-79
2023/07/27 07:55:35;;;;;;;2.67;1.80;;;;;;;15.42;54.60;100190.53;5085907;28;20649;-77
2023/07/27 07:58:03;;;;;;;3.25;1.75;;;;;;;15.41;53.81;100188.84;5096690;28;20036;-78
2023/07/27 08:00:31;;;;;;;3.15;1.67;;;;;;;15.45;54.34;100183.78;5087530;28;20059;-78
2023/07/27 08:02:59;;;;;;;2.83;1.52;;;;;;;15.46;54.25;100180.00;5068870;28;20047;-77
2023/07/27 08:05:27;;;;;;;3.03;1.70;;;;;;;15.47;53.85;100177.06;5072520;28;20086;-78
2023/07/27 08:07:55;;;;;;;2.92;1.77;;;;;;;15.49;54.31;100174.13;5087965;28;20040;-79
2023/07/27 08:10:27;;;;;;;3.53;1.67;;;;;;;15.54;55.08;100181.84;5090426;28;20052;-77
2023/07/27 08:12:55;;;;;;;2.45;1.48;;;;;;;15.50;54.31;100173.09;5095646;28;20039;-77
2023/07/27 08:15:26;;;;;;;3.40;1.60;;;;;;;15.56;55.04;100179.75;5069166;28;20048;-77
2023/07/27 08:18:22;;;;;;;2.35;1.40;;;;;;;15.55;55.56;100181.66;5081056;28;20038;-77
2023/07/27 08:21:01;;;;;;;2.28;1.65;;;;;;;15.58;55.64;100164.75;5092913;28;20043;-76
2023/07/27 08:23:29;;;;;;;2.60;1.50;;;;;;;15.57;54.24;100175.97;5090665;28;20103;-77
2023/07/27 08:25:59;;;;;;;2.40;1.40;;;;;;;15.61;54.68;100171.78;5076864;28;20104;-77
2023/07/27 08:28:28;;;;;;;2.72;1.50;;;;;;;15.61;54.49;100180.91;5095519;28;20046;-77
2023/07/27 08:30:56;;;;;;;2.33;1.30;;;;;;;15.64;54.84;100171.44;5071543;28;20594;-78
2023/07/27 08:33:24;;;;;;;2.88;1.30;;;;;;;15.66;54.96;100167.47;5089718;28;20086;-78
2023/07/27 08:35:52;;;;;;;2.33;1.40;;;;;;;15.69;54.96;100163.44;5083917;28;20786;-76
2023/07/27 08:38:20;;;;;;;2.45;1.25;;;;;;;15.71;54.93;100153.97;5096047;28;20089;-77
2023/07/27 08:40:55;;;;;;;2.17;1.20;;;;;;;15.77;56.07;100158.72;5088475;28;20090;-77
2023/07/27 08:43:25;;;;;;;1.77;1.10;;;;;;;15.78;54.83;100156.81;5086791;28;20401;-77
2023/07/27 08:45:54;;;;;;;2.60;1.25;;;;;;;15.78;54.81;100160.44;5087079;28;20050;-77
2023/07/27 08:48:24;;;;;;;1.88;1.10;;;;;;;15.83;55.19;100157.16;5068677;28;20131;-77
2023/07/27 08:50:53;;;;;;;1.75;1.10;;;;;;;15.83;55.15;100160.75;5084326;28;20175;-78
2023/07/27 08:53:21;;;;;;;1.65;1.00;;;;;;;15.86;54.83;100162.28;5086577;28;20111;-77
2023/07/27 08:55:49;;;;;;;2.33;1.20;;;;;;;15.87;54.94;100162.09;5089495;28;20343;-77
2023/07/27 08:58:19;;;;;;;2.42;1.10;;;;;;;15.91;55.01;100154.31;5071927;28;20052;-77
2023/07/27 09:00:50;;;;;;;1.42;1.15;;;;;;;15.93;55.54;100160.47;5080282;28;20135;-79
2023/07/27 09:03:18;;;;;;;1.65;1.10;;;;;;;15.93;55.36;100156.88;5085827;28;20055;-78
2023/07/27 09:06:03;;;;;;;1.55;1.00;;;;;;;15.97;56.94;100159.09;5064884;28;20048;-78
2023/07/27 09:08:31;;;;;;;1.33;0.85;;;;;;;15.95;55.26;100158.41;5071733;28;20052;-77
2023/07/27 09:11:07;;;;;;;2.00;1.00;;;;;;;15.99;56.27;100165.28;5092771;28;20562;-78
2023/07/27 09:13:35;;;;;;;2.10;0.90;;;;;;;15.98;55.58;100162.69;5093744;28;20132;-77
2023/07/27 09:16:06;;;;;;;1.40;0.98;;;;;;;16.02;55.68;100161.25;5069911;28;20043;-77
2023/07/27 09:18:36;;;;;;;1.92;1.10;;;;;;;16.03;55.57;100160.22;5088097;28;20210;-77
2023/07/27 09:21:09;;;;;;;1.67;1.02;;;;;;;16.07;56.34;100156.06;5063952;28;20128;-77
2023/07/27 09:23:37;;;;;;;2.30;1.02;;;;;;;16.07;55.98;100153.31;5090247;28;20039;-76
2023/07/27 09:26:06;;;;;;;2.20;0.93;;;;;;;16.10;55.50;100155.66;5087035;28;20366;-77
2023/07/27 09:28:35;;;;;;;1.30;0.90;;;;;;;16.13;55.85;100164.44;5087928;28;20123;-78
2023/07/27 09:31:05;;;;;;;1.15;0.80;;;;;;;16.14;56.09;100152.38;5072071;28;20036;-78
2023/07/27 09:33:33;;;;;;;1.23;0.98;;;;;;;16.15;55.79;100148.56;5092333;28;20525;-77
2023/07/27 09:36:03;;;;;;;1.65;0.90;;;;;;;16.19;55.91;100154.56;5084013;28;20687;-78
2023/07/27 09:38:31;;;;;;;1.70;0.80;;;;;;;16.21;56.02;100153.34;5088559;28;20040;-79
2023/07/27 09:41:07;;;;;;;1.45;0.90;;;;;;;16.26;57.14;100153.63;5094524;28;20123;-78
2023/07/27 09:43:37;;;;;;;1.63;0.95;;;;;;;16.27;56.39;100151.72;5085624;28;20086;-79
2023/07/27 09:46:07;;;;;;;1.80;1.10;;;;;;;16.31;55.79;100150.31;5085155;28;20037;-77
2023/07/27 09:48:36;;;;;;;1.48;1.00;;;;;;;16.33;56.05;100147.38;5090048;28;20470;-77
2023/07/27 09:51:08;;;;;;;1.75;1.02;;;;;;;16.37;56.53;100145.94;5084039;28;20125;-77
2023/07/27 09:53:37;;;;;;;1.80;1.10;;;;;;;16.37;55.84;100140.41;5089649;28;20043;-76
2023/07/27 09:56:06;;;;;;;2.47;1.00;;;;;;;16.40;56.25;100146.44;5089190;28;20044;-77
2023/07/27 09:58:36;;;;;;;1.70;1.00;;;;;;;16.43;56.24;100142.41;5093455;28;20097;-77
2023/07/27 10:01:04;;;;;;;2.50;1.15;;;;;;;16.46;56.10;100142.03;5095574;28;20035;-77
2023/07/27 10:03:34;;;;;;;2.13;1.27;;;;;;;16.49;56.37;100145.28;5081565;28;20059;-76
2023/07/27 10:06:03;;;;;;;2.38;1.38;;;;;;;16.50;56.15;100140.59;5086819;28;20042;-76
2023/07/27 10:08:33;;;;;;;1.45;1.15;;;;;;;16.54;55.77;100145.56;5084650;28;20090;-76
2023/07/27 10:11:02;;;;;;;2.65;1.40;;;;;;;16.54;55.84;100140.03;5087878;28;20458;-76
2023/07/27 10:13:39;;;;;;;2.88;1.40;;;;;;;16.59;56.79;100132.03;5086165;28;20093;-76
2023/07/27 10:16:10;;;;;;;3.10;1.50;;;;;;;16.60;56.00;100142.03;5070341;28;20470;-76
2023/07/27 10:18:45;;;;;;;2.67;1.40;;;;;;;16.64;56.82;100135.09;5094377;28;20040;-75
2023/07/27 10:21:27;;;;;;;2.50;1.60;;;;;;;16.66;57.44;100134.88;5095137;28;20437;-76
2023/07/27 10:23:58;;;;;;;2.75;1.58;;;;;;;16.67;55.89;100135.75;5092875;28;20044;-75
2023/07/27 10:26:47;;;;;;;3.50;1.77;;;;;;;16.69;57.23;100137.28;5088443;28;20040;-76
2023/07/27 10:29:16;;;;;;;3.25;1.80;;;;;;;16.70;55.94;100133.47;5102206;22;20044;-74
2023/07/27 10:31:45;;;;;;;2.50;1.50;;;;;;;16.74;56.04;100136.72;5031409;28;20507;-74
2023/07/27 10:34:17;;;;;;;3.45;1.90;;;;;;;16.78;56.25;100126.97;5044138;28;20060;-75
2023/07/27 10:36:57;;;;;;;3.17;1.80;;;;;;;16.78;56.17;100125.06;5033665;28;20549;-74
2023/07/27 10:39:28;;;;;;;4.28;2.08;;;;;;;16.78;56.56;100130.59;5053362;28;20065;-74
2023/07/27 10:42:05;;;;;;;2.75;1.77;;;;;;;16.84;57.00;100134.47;5052114;28;20067;-74
2023/07/27 10:44:41;;;;;;;3.33;1.95;;;;;;;16.86;57.07;100130.50;5051139;28;20033;-74
2023/07/27 10:47:10;;;;;;;2.90;1.60;;;;;;;16.86;56.46;100133.25;5032074;28;20071;-74
2023/07/27 10:49:41;;;;;;;2.58;1.50;;;;;;;16.91;56.85;100138.19;5046668;28;20037;-74
2023/07/27 10:52:09;;;;;;;2.58;1.60;;;;;;;16.91;56.44;100130.75;5043306;28;20037;-74
2023/07/27 10:54:39;;;;;;;4.03;1.95;;;;;;;16.93;56.75;100134.19;5047330;28;20361;-74
2023/07/27 10:57:09;;;;;;;4.07;1.70;;;;;;;16.96;56.59;100125.53;5050528;28;20435;-74
2023/07/27 10:59:39;;;;;;;2.38;1.60;;;;;;;16.98;56.26;100126.22;5049870;28;20472;-74
2023/07/27 11:02:16;;;;;;;3.03;1.70;;;;;;;17.01;56.95;100125.81;5051100;28;20053;-74
2023/07/27 11:04:46;;;;;;;2.45;1.45;;;;;;;17.02;56.80;100129.44;5027946;28;20168;-74
2023/07/27 11:07:15;;;;;;;2.65;1.38;;;;;;;17.04;56.59;100127.34;5049625;28;20048;-74
2023/07/27 11:09:47;;;;;;;3.70;1.48;;;;;;;17.09;56.74;100135.91;5049155;28;20411;-74
2023/07/27 11:12:15;;;;;;;3.50;1.50;;;;;;;17.06;56.66;100130.78;5038566;28;20476;-74
2023/07/27 11:14:43;;;;;;;2.55;1.40;;;;;;;17.11;56.53;100125.50;5036713;28;20051;-74
2023/07/27 11:17:12;;;;;;;3.05;1.50;;;;;;;17.15;57.00;100135.16;5051645;28;20041;-74
2023/07/27 11:19:40;;;;;;;2.25;1.25;;;;;;;17.16;56.91;100120.25;5038995;28;20041;-73
2023/07/27 11:22:10;;;;;;;2.38;1.13;;;;;;;17.22;57.13;100126.91;5031892;28;20525;-73
2023/07/27 11:24:41;;;;;;;3.45;1.40;;;;;;;17.21;56.90;100120.53;5060568;28;20068;-73
2023/07/27 11:27:10;;;;;;;2.60;1.40;;;;;;;17.25;57.39;100113.53;5058814;28;20036;-73
2023/07/27 11:29:39;;;;;;;2.80;1.30;;;;;;;17.29;57.55;100122.31;5043037;28;20060;-74
2023/07/27 11:32:08;;;;;;;2.22;1.30;;;;;;;17.32;57.33;100106.16;5050585;28;20091;-73
2023/07/27 11:34:36;;;;;;;1.90;1.25;;;;;;;17.35;57.13;100114.09;5053433;28;20037;-73
2023/07/27 11:37:04;;;;;;;2.20;1.40;;;;;;;17.42;57.46;100110.53;5057823;28;20403;-73
2023/07/27 11:39:35;;;;;;;2.15;1.20;;;;;;;17.45;57.41;100112.91;5057385;28;20044;-74
2023/07/27 11:42:09;;;;;;;2.33;1.30;;;;;;;17.49;57.37;100111.44;5054115;28;20064;-73
2023/07/27 11:44:38;;;;;;;1.83;1.15;;;;;;;17.48;56.98;100116.16;5043732;28;20091;-73